createdAt,value
2022-10-18T00:02:57.210Z,17.90
2022-10-18T00:06:05.020Z,17.10
2022-10-18T00:09:11.652Z,16.60
2022-10-18T00:12:18.327Z,17.10
2022-10-18T00:15:25.084Z,17.70
2022-10-18T00:18:31.777Z,18.00
2022-10-18T00:21:38.490Z,17.70
2022-10-18T00:24:45.110Z,17.70
2022-10-18T00:27:52.992Z,19.00
2022-10-18T00:30:59.744Z,17.70
2022-10-18T00:34:09.071Z,19.40
2022-10-18T00:37:15.964Z,18.40
2022-10-18T00:40:22.493Z,16.60
2022-10-18T00:43:29.356Z,18.30
2022-10-18T00:46:37.867Z,18.20
2022-10-18T00:49:47.723Z,16.50
2022-10-18T00:53:01.759Z,17.40
2022-10-18T00:56:09.283Z,17.80
2022-10-18T00:59:17.928Z,17.40
2022-10-18T01:02:24.984Z,16.70
2022-10-18T01:05:31.723Z,17.20
2022-10-18T01:08:51.319Z,17.90
2022-10-18T01:12:14.263Z,18.40
2022-10-18T01:15:27.181Z,19.30
2022-10-18T01:18:41.393Z,17.80
2022-10-18T01:21:52.755Z,17.40
2022-10-18T01:25:07.935Z,17.60
2022-10-18T01:28:33.383Z,17.40
2022-10-18T01:31:46.291Z,18.50
2022-10-18T01:34:58.553Z,16.40
2022-10-18T01:38:11.453Z,18.00
2022-10-18T01:41:21.568Z,17.10
2022-10-18T01:44:30.710Z,17.10
2022-10-18T01:47:38.088Z,16.90
2022-10-18T01:50:44.925Z,19.00
2022-10-18T01:53:51.654Z,17.60
2022-10-18T01:57:03.913Z,18.80
2022-10-18T02:00:18.346Z,17.70
2022-10-18T02:03:28.712Z,17.80
2022-10-18T02:06:41.604Z,17.80
2022-10-18T02:09:52.933Z,17.40
2022-10-18T02:13:01.034Z,16.50
2022-10-18T02:16:11.564Z,18.20
2022-10-18T02:22:34.679Z,17.50
2022-10-18T02:25:41.933Z,18.10
2022-10-18T02:28:49.082Z,19.60
2022-10-18T02:32:01.946Z,18.20
2022-10-18T02:35:12.673Z,18.30
2022-10-18T02:38:24.908Z,19.30
2022-10-18T02:41:33.682Z,18.90
2022-10-18T02:44:43.326Z,19.20
2022-10-18T02:47:50.338Z,21.20
2022-10-18T02:50:56.888Z,18.20
2022-10-18T02:54:03.699Z,17.90
2022-10-18T02:57:10.449Z,19.60
2022-10-18T03:00:18.335Z,17.50
2022-10-18T03:03:25.162Z,18.40
2022-10-18T03:06:32.219Z,17.90
2022-10-18T03:09:41.081Z,17.00
2022-10-18T03:12:47.871Z,18.20
2022-10-18T03:15:54.573Z,19.00
2022-10-18T03:19:01.243Z,18.00
2022-10-18T03:22:08.003Z,18.30
2022-10-18T03:25:15.391Z,20.50
2022-10-18T03:28:22.059Z,17.40
2022-10-18T03:31:28.793Z,17.60
2022-10-18T03:34:35.376Z,19.00
2022-10-18T03:37:42.076Z,17.20
2022-10-18T03:40:48.665Z,18.70
2022-10-18T03:43:55.271Z,18.10
2022-10-18T03:47:01.906Z,18.80
2022-10-18T03:50:09.711Z,18.40
2022-10-18T03:53:16.761Z,18.90
2022-10-18T03:56:23.476Z,17.70
2022-10-18T03:59:30.084Z,17.90
2022-10-18T04:02:36.922Z,20.70
2022-10-18T04:05:43.650Z,19.10
2022-10-18T04:08:50.207Z,20.20
2022-10-18T04:11:56.865Z,20.70
2022-10-18T04:15:03.416Z,21.10
2022-10-18T04:18:10.303Z,20.20
2022-10-18T04:21:17.981Z,21.20
2022-10-18T04:24:24.782Z,21.90
2022-10-18T04:27:31.982Z,20.10
2022-10-18T04:30:39.184Z,20.30
2022-10-18T04:33:45.939Z,19.70
2022-10-18T04:36:52.634Z,20.70
2022-10-18T04:40:00.003Z,19.20
2022-10-18T04:43:06.754Z,17.70
2022-10-18T04:46:13.397Z,18.90
2022-10-18T04:49:20.091Z,18.90
2022-10-18T04:52:26.745Z,18.30
2022-10-18T04:55:34.549Z,18.10
2022-10-18T04:58:41.195Z,17.70
2022-10-18T05:01:48.988Z,18.00
2022-10-18T05:04:55.719Z,17.40
2022-10-18T05:08:02.270Z,25.20
2022-10-18T05:14:16.788Z,17.50
2022-10-18T05:17:23.406Z,19.00
2022-10-18T05:20:30.065Z,19.20
2022-10-18T05:23:36.740Z,18.00
2022-10-18T05:26:43.353Z,19.50
2022-10-18T05:29:50.102Z,20.30
2022-10-18T05:32:56.704Z,18.00
2022-10-18T05:36:03.274Z,18.10
2022-10-18T05:39:09.822Z,19.30
2022-10-18T05:42:16.343Z,18.50
2022-10-18T05:45:23.049Z,19.70
2022-10-18T05:48:29.642Z,17.00
2022-10-18T05:51:36.182Z,17.20
2022-10-18T05:54:43.078Z,18.60
2022-10-18T05:57:53.048Z,17.50
2022-10-18T06:01:02.381Z,19.00
2022-10-18T06:07:14.837Z,17.90
2022-10-18T06:10:21.481Z,20.30
2022-10-18T06:13:31.092Z,17.90
2022-10-18T06:16:39.109Z,16.90
2022-10-18T06:19:45.893Z,20.00
2022-10-18T06:22:54.675Z,19.70
2022-10-18T06:26:04.136Z,17.90
2022-10-18T06:32:16.326Z,20.80
2022-10-18T06:35:22.977Z,16.90
2022-10-18T06:38:30.742Z,16.20
2022-10-18T06:41:37.364Z,17.30
2022-10-18T06:44:55.095Z,15.10
2022-10-18T06:48:02.184Z,17.90
2022-10-18T06:51:09.855Z,18.00
2022-10-18T06:54:18.504Z,19.40
2022-10-18T06:57:25.683Z,19.50
2022-10-18T07:00:32.265Z,17.30
2022-10-18T07:03:39.074Z,17.70
2022-10-18T07:06:45.700Z,18.70
2022-10-18T07:09:52.241Z,18.50
2022-10-18T07:13:13.544Z,19.20
2022-10-18T07:16:25.648Z,19.10
2022-10-18T07:19:33.081Z,15.40
2022-10-18T07:22:39.989Z,16.80
2022-10-18T07:25:47.026Z,16.50
2022-10-18T07:28:58.009Z,17.80
2022-10-18T07:32:05.237Z,19.80
2022-10-18T07:38:24.110Z,17.30
2022-10-18T07:41:33.323Z,19.00
2022-10-18T07:47:46.153Z,16.70
2022-10-18T07:50:53.126Z,17.00
2022-10-18T07:54:00.211Z,16.30
2022-10-18T07:57:07.952Z,17.20
2022-10-18T08:00:16.229Z,13.90
2022-10-18T08:03:23.314Z,14.70
2022-10-18T08:06:30.155Z,13.90
2022-10-18T08:09:36.879Z,13.00
2022-10-18T08:12:43.620Z,16.50
2022-10-18T08:15:50.541Z,14.50
2022-10-18T08:18:58.282Z,15.00
2022-10-18T08:22:05.036Z,12.90
2022-10-18T08:25:12.392Z,12.00
2022-10-18T08:28:19.060Z,13.80
2022-10-18T08:31:25.931Z,14.30
2022-10-18T08:34:33.900Z,14.80
2022-10-18T08:37:45.491Z,14.10
2022-10-18T08:40:52.427Z,14.50
2022-10-18T08:44:10.329Z,14.80
2022-10-18T08:47:20.582Z,13.80
2022-10-18T08:50:34.945Z,12.00
2022-10-18T08:53:53.056Z,10.60
2022-10-18T08:57:02.673Z,12.80
2022-10-18T09:00:18.260Z,13.00
2022-10-18T09:03:45.182Z,12.60
2022-10-18T09:07:03.288Z,13.70
2022-10-18T09:10:22.514Z,11.90
2022-10-18T09:16:51.656Z,13.20
2022-10-18T09:20:12.186Z,14.90
2022-10-18T09:23:25.109Z,13.60
2022-10-18T09:26:40.713Z,13.50
2022-10-18T09:29:59.706Z,13.60
2022-10-18T09:33:24.596Z,13.50
2022-10-18T09:36:35.603Z,12.70
2022-10-18T09:39:43.577Z,15.50
2022-10-18T09:42:56.811Z,12.60
2022-10-18T09:46:04.883Z,14.00
2022-10-18T09:49:18.139Z,14.50
2022-10-18T09:52:31.679Z,14.60
2022-10-18T09:55:50.336Z,13.60
2022-10-18T09:58:57.152Z,13.60
2022-10-18T10:02:08.101Z,12.40
2022-10-18T10:05:17.107Z,14.30
2022-10-18T10:08:35.668Z,12.80
2022-10-18T10:11:47.883Z,15.20
2022-10-18T10:14:54.748Z,16.40
2022-10-18T10:18:04.993Z,12.90
2022-10-18T10:21:17.246Z,15.40
2022-10-18T10:24:44.246Z,14.80
2022-10-18T10:27:50.884Z,13.90
2022-10-18T10:31:17.291Z,13.60
2022-10-18T10:34:25.414Z,11.40
2022-10-18T10:37:38.868Z,15.10
2022-10-18T10:40:50.323Z,15.90
2022-10-18T10:43:57.430Z,14.60
2022-10-18T10:47:06.014Z,13.50
2022-10-18T10:50:14.960Z,14.10
2022-10-18T10:53:39.961Z,13.40
2022-10-18T10:56:56.730Z,14.50
2022-10-18T11:00:04.913Z,12.70
2022-10-18T11:03:28.947Z,11.60
2022-10-18T11:06:47.737Z,9.90
2022-10-18T11:10:02.454Z,11.40
2022-10-18T11:13:24.237Z,10.90
2022-10-18T11:16:37.023Z,8.80
2022-10-18T11:19:53.869Z,9.30
2022-10-18T11:23:04.787Z,6.90
2022-10-18T11:26:22.041Z,8.70
2022-10-18T11:29:56.087Z,6.70
2022-10-18T11:33:13.351Z,5.50
2022-10-18T11:36:26.374Z,4.40
2022-10-18T11:39:44.621Z,5.00
2022-10-18T11:42:59.915Z,4.10
2022-10-18T11:46:13.265Z,5.10
2022-10-18T11:49:44.994Z,5.30
2022-10-18T11:53:02.194Z,5.40
2022-10-18T11:56:17.531Z,4.60
2022-10-18T11:59:38.007Z,5.40
2022-10-18T12:02:58.981Z,5.40
2022-10-18T12:06:13.476Z,4.50
2022-10-18T12:09:28.841Z,5.10
2022-10-18T12:12:43.144Z,4.50
2022-10-18T12:15:50.976Z,4.70
2022-10-18T12:19:01.122Z,5.00
2022-10-18T12:22:19.911Z,5.50
2022-10-18T12:25:29.312Z,5.90
2022-10-18T12:28:48.339Z,6.50
2022-10-18T12:31:58.394Z,5.60
2022-10-18T12:35:13.025Z,6.30
2022-10-18T12:38:36.789Z,5.70
2022-10-18T12:41:48.203Z,5.80
2022-10-18T12:45:05.577Z,4.90
2022-10-18T12:48:30.976Z,5.70
2022-10-18T12:51:50.300Z,5.50
2022-10-18T12:55:22.583Z,7.20
2022-10-18T12:58:33.699Z,5.00
2022-10-18T13:02:20.700Z,6.10
2022-10-18T13:05:56.712Z,5.60
2022-10-18T13:09:23.550Z,4.70
2022-10-18T13:12:56.560Z,4.60
2022-10-18T13:16:12.948Z,5.30
2022-10-18T13:19:26.566Z,5.10
2022-10-18T13:22:49.488Z,6.00
2022-10-18T13:26:03.604Z,4.30
2022-10-18T13:29:31.992Z,5.10
2022-10-18T13:32:48.298Z,5.60
2022-10-18T13:35:57.940Z,5.30
2022-10-18T13:39:07.324Z,4.90
2022-10-18T13:42:34.792Z,4.90
2022-10-18T13:46:00.496Z,4.50
2022-10-18T13:49:29.136Z,5.50
2022-10-18T13:52:53.192Z,6.10
2022-10-18T13:56:47.301Z,6.00
2022-10-18T14:00:05.689Z,5.80
2022-10-18T14:07:06.139Z,7.50
2022-10-18T14:10:33.345Z,8.30
2022-10-18T14:13:53.177Z,8.80
2022-10-18T14:17:07.978Z,7.90
2022-10-18T14:20:29.416Z,9.20
2022-10-18T14:23:42.816Z,10.10
2022-10-18T14:27:11.340Z,9.90
2022-10-18T14:30:21.314Z,9.60
2022-10-18T14:33:36.854Z,11.30
2022-10-18T14:36:47.304Z,10.10
2022-10-18T14:39:54.239Z,9.50
2022-10-18T14:43:05.205Z,9.20
2022-10-18T14:46:17.756Z,8.70
2022-10-18T14:49:24.441Z,8.10
2022-10-18T14:52:35.671Z,8.30
2022-10-18T14:55:44.190Z,7.90
2022-10-18T14:58:52.326Z,9.40
2022-10-18T15:02:02.156Z,7.90
2022-10-18T15:05:19.374Z,9.20
2022-10-18T15:08:28.142Z,8.90
2022-10-18T15:11:35.046Z,10.50
2022-10-18T15:14:43.396Z,9.40
2022-10-18T15:17:52.562Z,7.80
2022-10-18T15:21:20.438Z,8.50
2022-10-18T15:24:34.632Z,7.70
2022-10-18T15:27:45.026Z,7.30
2022-10-18T15:30:51.864Z,7.00
2022-10-18T15:34:11.775Z,6.30
2022-10-18T15:37:30.206Z,5.80
2022-10-18T15:40:43.307Z,5.80
2022-10-18T15:43:50.263Z,5.70
2022-10-18T15:47:10.504Z,5.40
2022-10-18T15:50:41.130Z,5.60
2022-10-18T15:53:54.327Z,5.70
2022-10-18T15:57:07.978Z,5.70
2022-10-18T16:00:21.629Z,5.30
2022-10-18T16:03:29.339Z,5.30
2022-10-18T16:06:38.641Z,5.00
2022-10-18T16:09:45.570Z,5.10
2022-10-18T16:12:52.265Z,6.10
2022-10-18T16:16:00.305Z,6.60
2022-10-18T16:19:07.363Z,7.10
2022-10-18T16:22:16.180Z,7.10
2022-10-18T16:25:22.954Z,7.70
2022-10-18T16:28:31.892Z,6.30
2022-10-18T16:31:38.702Z,7.20
2022-10-18T16:34:45.450Z,6.90
2022-10-18T16:37:52.377Z,6.30
2022-10-18T16:40:59.682Z,7.00
2022-10-18T16:44:06.602Z,4.50
2022-10-18T16:47:13.950Z,4.80
2022-10-18T16:50:22.892Z,3.80
2022-10-18T16:53:29.942Z,3.90
2022-10-18T16:56:36.780Z,3.70
2022-10-18T16:59:43.526Z,3.90
2022-10-18T17:02:50.835Z,4.30
2022-10-18T17:05:57.845Z,4.00
2022-10-18T17:09:04.727Z,4.00
2022-10-18T17:12:11.380Z,3.80
2022-10-18T17:15:18.416Z,4.20
2022-10-18T17:18:27.591Z,4.50
2022-10-18T17:21:34.817Z,3.80
2022-10-18T17:24:41.459Z,4.90
2022-10-18T17:27:48.555Z,4.80
2022-10-18T17:30:55.260Z,4.90
2022-10-18T17:34:02.536Z,4.40
2022-10-18T17:37:11.542Z,5.50
2022-10-18T17:40:18.605Z,5.20
2022-10-18T17:43:25.203Z,4.90
2022-10-18T17:46:31.999Z,4.90
2022-10-18T17:49:38.713Z,4.80
2022-10-18T17:52:47.077Z,5.00
2022-10-18T17:56:02.333Z,4.30
2022-10-18T17:59:09.661Z,5.60
2022-10-18T18:02:16.583Z,5.80
2022-10-18T18:05:23.308Z,5.70
2022-10-18T18:08:30.811Z,6.30
2022-10-18T18:11:39.278Z,6.20
2022-10-18T18:14:46.120Z,7.00
2022-10-18T18:17:57.056Z,7.50
2022-10-18T18:21:04.522Z,7.00
2022-10-18T18:24:12.597Z,7.00
2022-10-18T18:27:19.258Z,6.20
2022-10-18T18:30:26.005Z,7.00
2022-10-18T18:33:34.816Z,7.00
2022-10-18T18:36:41.758Z,9.20
2022-10-18T18:39:48.702Z,7.80
2022-10-18T18:43:07.220Z,7.00
2022-10-18T18:46:22.868Z,7.50
2022-10-18T18:49:31.603Z,7.40
2022-10-18T18:52:38.375Z,8.20
2022-10-18T18:55:48.658Z,8.60
2022-10-18T18:58:56.853Z,6.20
2022-10-18T19:02:03.528Z,6.70
2022-10-18T19:05:10.740Z,7.90
2022-10-18T19:08:17.473Z,8.80
2022-10-18T19:11:25.037Z,9.10
2022-10-18T19:14:31.542Z,8.80
2022-10-18T19:17:38.348Z,8.20
2022-10-18T19:20:44.992Z,9.70
2022-10-18T19:23:52.051Z,9.40
2022-10-18T19:27:00.805Z,8.70
2022-10-18T19:30:09.873Z,8.70
2022-10-18T19:33:35.393Z,9.10
2022-10-18T19:36:50.095Z,9.00
2022-10-18T19:39:56.750Z,9.00
2022-10-18T19:43:03.363Z,9.30
2022-10-18T19:46:11.216Z,8.80
2022-10-18T19:49:18.608Z,9.00
2022-10-18T19:52:25.235Z,8.80
2022-10-18T19:55:32.019Z,8.80
2022-10-18T19:58:38.640Z,9.20
2022-10-18T20:01:46.396Z,10.40
2022-10-18T20:04:53.132Z,10.90
2022-10-18T20:07:59.966Z,9.20
2022-10-18T20:11:09.020Z,9.40
2022-10-18T20:14:15.675Z,9.90
2022-10-18T20:17:22.352Z,9.90
2022-10-18T20:20:28.905Z,9.60
2022-10-18T20:23:39.079Z,9.90
2022-10-18T20:26:45.721Z,10.60
2022-10-18T20:29:52.496Z,10.20
2022-10-18T20:32:59.259Z,9.10
2022-10-18T20:36:08.367Z,9.70
2022-10-18T20:39:15.053Z,9.80
2022-10-18T20:42:21.719Z,8.80
2022-10-18T20:45:28.450Z,10.90
2022-10-18T20:48:35.910Z,10.80
2022-10-18T20:51:42.770Z,11.00
2022-10-18T20:54:49.561Z,9.90
2022-10-18T20:57:56.317Z,10.80
2022-10-18T21:01:09.658Z,10.90
2022-10-18T21:04:16.387Z,11.50
2022-10-18T21:07:23.032Z,9.30
2022-10-18T21:10:29.643Z,10.60
2022-10-18T21:13:36.598Z,10.70
2022-10-18T21:16:43.973Z,10.90
2022-10-18T21:19:50.614Z,9.90
2022-10-18T21:22:57.521Z,9.90
2022-10-18T21:26:04.349Z,10.50
2022-10-18T21:29:12.403Z,9.70
2022-10-18T21:32:19.235Z,10.30
2022-10-18T21:35:25.782Z,10.90
2022-10-18T21:38:32.611Z,11.20
2022-10-18T21:41:39.187Z,11.30
2022-10-18T21:44:46.011Z,11.00
2022-10-18T21:47:52.642Z,10.20
2022-10-18T21:51:02.724Z,10.60
2022-10-18T21:54:12.567Z,10.30
2022-10-18T21:57:19.262Z,9.80
2022-10-18T22:00:25.896Z,10.40
2022-10-18T22:03:32.649Z,9.90
2022-10-18T22:06:39.261Z,9.50
2022-10-18T22:09:46.051Z,9.60
2022-10-18T22:12:52.632Z,9.90
2022-10-18T22:16:03.253Z,8.30
2022-10-18T22:19:10.198Z,9.30
2022-10-18T22:22:16.820Z,10.10
2022-10-18T22:25:23.533Z,9.60
2022-10-18T22:28:30.283Z,9.50
2022-10-18T22:31:39.543Z,9.70
2022-10-18T22:34:46.200Z,9.90
2022-10-18T22:37:56.030Z,9.10
2022-10-18T22:41:06.395Z,9.60
2022-10-18T22:44:15.697Z,9.70
2022-10-18T22:47:22.409Z,9.90
2022-10-18T22:50:29.038Z,9.60
2022-10-18T22:53:36.261Z,10.50
2022-10-18T22:56:42.949Z,9.90
2022-10-18T22:59:49.474Z,8.40
2022-10-18T23:02:56.138Z,9.60
2022-10-18T23:06:03.272Z,11.10
2022-10-18T23:09:11.725Z,12.40
2022-10-18T23:12:18.580Z,9.80
2022-10-18T23:15:25.179Z,10.10
2022-10-18T23:18:32.376Z,10.60
2022-10-18T23:21:39.039Z,12.00
2022-10-18T23:24:45.589Z,10.00
2022-10-18T23:27:52.357Z,11.20
2022-10-18T23:30:59.067Z,11.10
2022-10-18T23:34:07.026Z,11.40
2022-10-18T23:37:13.639Z,10.90
2022-10-18T23:40:20.484Z,11.40
2022-10-18T23:43:27.235Z,11.60
2022-10-18T23:46:33.891Z,9.30
2022-10-18T23:49:40.459Z,9.30
2022-10-18T23:52:47.085Z,9.30
2022-10-18T23:55:57.987Z,10.90
2022-10-18T23:59:04.737Z,10.00
